Tiempo atmosférico en la estación meteorológica de Alcazar De San Juan, Ciudad Real (664 m.)



Fecha
DESCASC
Temp. máxima en grados centígrados (hora)
DESCASC
Temp. mínima en grados centígrados (hora)
DESCASC
Temp. media en grados centígrados
DESCASC
Racha de viento máxima en m/sg (hora)
DESCASC
Velocidad máxima media en intervalos de 10 minutos(hora)
DESCASC
Precipitaciones diarias en mm
DESCASC
Precipitaciones de 00:00 a 06:00 en mm
DESCASC
Precipitaciones de 06:00 a 12:00 en mm
DESCASC
Precipitaciones de 12:00 a 18:00 en mm
DESCASC
Precipitaciones de 18:00 a 24:00 en mm
DESCASC
18-01-2018 14.5 (16:10) -0.5 (08:30) 7 7.78 (11:30) 2.78 (10:50) 0 0 0 0 0
17-01-2018 12.1 (17:10) 0.4 (06:40) 6.3 4.72 (22:30) 2.5 (22:00) 0 0 0 0 0
16-01-2018 11.2 (15:30) 0 (07:20) 5.6 5.83 (15:50) 2.5 (13:20) 0 0 0 0 0
15-01-2018 8.8 (16:10) -1.8 (08:30) 3.5 4.72 (17:30) 2.22 (00:30) 0 0 0 0 0
14-01-2018 7 (13:40) 1.5 (00:00) 4.3 4.44 (14:50) 2.22 (14:50) 0.2 0 0.2 0 0
13-01-2018 7.9 (14:30) 1.8 (00:00) 4.9 8.33 (15:00) 3.61 (15:00) 0.8 0 0 0.8 0
12-01-2018 8.7 (16:40) -1.6 (-00:0) 3.5 3.89 (14:00) 2.22 (14:40) 0 0 0 0 0
11-01-2018 9.1 (14:00) 1.2 (00:00) 5.2 9.72 (13:50) 4.44 (15:20) 0 0 0 0 0
10-01-2018 10.8 (14:10) 4.8 (00:00) 7.8 10.56 (14:50) 4.72 (14:50) 2.4 0.6 0 0.2 1.6
09-01-2018 5.3 (16:50) -1.3 (-00:0) 2 4.44 (21:50) 2.5 (21:50) 1.2 0 0 0 1.2
08-01-2018 6.7 (15:40) -0.1 (00:00) 3.3 3.33 (13:30) 1.94 (13:40) 0 0 0 0 0
07-01-2018 4.6 (14:10) 1.2 (00:00) 2.9 7.5 (12:50) 4.44 (13:30) 5.2 0.8 4.4 0 0
06-01-2018 9.1 (00:00) 2.7 (00:00) 5.9 7.5 (18:40) 3.33 (16:30) 17.4 5.2 6 6 0.2
05-01-2018 11.8 (16:40) 9 (00:00) 10.4 9.17 (16:20) 3.89 (18:50) 0.4 0 0 0 0.4
04-01-2018 13.5 (15:50) 7.5 (01:40) 10.5 6.67 (17:00) 2.78 (16:50) 0 0 0 0 0
03-01-2018 13.5 (16:00) 5.1 (00:00) 9.3 6.11 (12:40) 2.5 (12:40) 0 0 0 0 0
02-01-2018 11.4 (15:40) 1.9 (00:00) 6.6 9.17 (13:10) 3.33 (11:50) 0.2 0 0.2 0 0
01-01-2018 11.5 (15:20) 1 (00:00) 6.3 7.5 (15:30) 3.33 (15:30) 0 0 0 0 0
31-12-2017 11 (16:50) 3.7 (00:00) 7.4 9.72 (21:00) 3.61 (16:30) 0.2 0 0.2 0 0
30-12-2017 14.4 (14:50) 6.8 (00:00) 10.6 4.72 (05:50) 1.94 (15:30) 0 0 0 0 0
29-12-2017 16.4 (14:50) 6.5 (00:00) 11.4 9.17 (12:20) 3.61 (12:10) 0 0 0 0 0
28-12-2017 15.9 (15:10) 6.3 (00:00) 11.1 11.39 (15:00) 4.72 (14:50) 0 0 0 0 0
27-12-2017 11 (15:40) 5.5 (00:00) 8.3 11.39 (02:50) 4.72 (05:50) 2.6 2.6 0 0 0
26-12-2017 8.6 (11:40) 5.2 (00:00) 6.9 8.89 (23:59) 3.89 (23:20) 1.8 0.2 1.2 0.4 0
25-12-2017 8.9 (15:30) -0.5 (-00:0) 4.2 5.56 (23:50) 2.5 (23:50) 0.4 0 0 0.4 0
24-12-2017 7.5 (15:30) -0.5 (-00:0) 3.5 3.89 (01:00) 1.39 (19:40) 0 0 0 0 0
23-12-2017 12.4 (16:10) -0.3 (00:00) 6 6.94 (19:20) 3.06 (19:10) 0 0 0 0 0
22-12-2017 11.9 (15:40) -0.3 (00:00) 5.8 3.61 (15:10) 1.67 (14:00) 0 0 0 0 0
21-12-2017 10.5 (16:30) -0.6 (-00:0) 4.9 3.06 (05:40) 1.11 (14:10) 0 0 0 0 0

Gráficas

Temp. máximas Temp. mínimas Temp. medias Precipitaciones Rachas de viento máximas Velocidades máximas media en intervalos de 10 minutos

Datos horarios

Fecha y hora oficial Temperatura (ºC) Velocidad del viento (km/h) Dirección del viento Racha (km/h) Dirección de racha Precipitación (mm) Presión (hPa) Tendencia (hPa) Humedad (%)
2018-01-19 23:00:00 6.2 7 Norte 14 Norte 0 -- -- 78
2018-01-19 22:00:00 6.6 3 Noroeste 10 Norte 0 -- -- 74
2018-01-19 21:00:00 8.3 4 Noroeste 11 Norte 0 -- -- 67
2018-01-19 20:00:00 9.1 3 Noroeste 10 Noroeste 0 -- -- 64
2018-01-19 19:00:00 10.9 3 Norte 9 Norte 0 -- -- 59
2018-01-19 18:00:00 12.9 5 Noroeste 18 Norte 0 -- -- 55
2018-01-19 17:00:00 14.4 5 Norte 15 Noroeste 0 -- -- 46
2018-01-19 16:00:00 14.9 10 Norte 22 Norte 0 -- -- 44
2018-01-19 15:00:00 13.8 6 Norte 15 Noroeste 0 -- -- 52
2018-01-19 14:00:00 12.3 4 Noroeste 12 Norte 0 -- -- 57
2018-01-19 13:00:00 10.8 5 Norte 15 Nordeste 0 -- -- 60
2018-01-19 12:00:00 7.9 8 Norte 22 Norte 0 -- -- 72
2018-01-19 11:00:00 4.6 3 Norte 9 Noroeste 0 -- -- 85
2018-01-19 10:00:00 1.9 2 Norte 8 Norte 0 -- -- 89
2018-01-19 09:00:00 1.5 0 Calma 5 Nordeste 0 -- -- 90
2018-01-19 08:00:00 1.8 3 Nordeste 9 Nordeste 0 -- -- 91
2018-01-19 07:00:00 2.2 4 Norte 11 Norte 0 -- -- 89
2018-01-19 06:00:00 2.5 5 Norte 10 Norte 0 -- -- 88
2018-01-19 05:00:00 3 3 Norte 9 Norte 0 -- -- 87
2018-01-19 04:00:00 3.3 3 Norte 8 Norte 0 -- -- 87
2018-01-19 03:00:00 3.4 0 Calma 15 Sur 0 -- -- 87
2018-01-19 02:00:00 3.7 0 Calma 9 Sur 0 -- -- 84
2018-01-19 01:00:00 4.4 2 Norte 15 Norte 0 -- -- 83
2018-01-19 00:00:00 5 3 Norte 11 Norte 0 -- -- 80
2018-01-18 23:00:00 6.1 2 Norte 10 Nordeste 0 -- -- 76
2018-01-18 22:00:00 6.6 2 Norte 6 Norte 0 -- -- 76
2018-01-18 21:00:00 7.6 2 Norte 3 Norte 0 -- -- 74
2018-01-18 20:00:00 9.1 0 Calma 3 Norte 0 -- -- 70
2018-01-18 19:00:00 10.9 0 Calma 5 Sur 0 -- -- 63
2018-01-18 18:00:00 13.4 3 Nordeste 13 Nordeste 0 -- -- 52
2018-01-18 17:00:00 14.2 4 Este 16 Nordeste 0 -- -- 51
2018-01-18 16:00:00 14.4 6 Este 19 Nordeste 0 -- -- 51
2018-01-18 15:00:00 14 8 Este 20 Este 0 -- -- 53
2018-01-18 14:00:00 13.1 7 Este 19 Este 0 -- -- 58
2018-01-18 13:00:00 11.5 8 Este 27 Este 0 -- -- 71
2018-01-18 12:00:00 10.1 7 Sudeste 28 Este 0 -- -- 76
2018-01-18 11:00:00 8.1 6 Sudeste 24 Este 0 -- -- 81
2018-01-18 10:00:00 3.9 5 Norte 14 Este 0 -- -- 93
2018-01-18 09:00:00 -0.3 0 Calma 5 Oeste 0 -- -- 93
2018-01-18 08:00:00 -0.2 0 Calma 4 Noroeste 0 -- -- 91
2018-01-18 07:00:00 0.1 0 Calma 4 Noroeste 0 -- -- 91
2018-01-18 06:00:00 0.4 0 Calma 3 Noroeste 0 -- -- 91
2018-01-18 05:00:00 1.3 0 Calma 4 Nordeste 0 -- -- 90
2018-01-18 04:00:00 1.7 0 Calma 5 Sudoeste 0 -- -- 89
2018-01-18 03:00:00 2.4 0 Calma 5 Sur 0 -- -- 86
2018-01-18 02:00:00 3.5 2 Sur 12 Sur 0 -- -- 82
2018-01-18 01:00:00 3.8 4 Norte 15 Norte 0 -- -- 82
2018-01-18 00:00:00 4.6 5 Norte 12 Norte 0 -- -- 78
2018-01-17 23:00:00 6.1 0 Calma 17 Nordeste 0 -- -- 73
2018-01-17 22:00:00 6.2 9 Norte 17 Nordeste 0 -- -- 73
2018-01-17 21:00:00 6.9 3 Nordeste 8 Norte 0 -- -- 73
2018-01-17 20:00:00 8.2 3 Norte 11 Nordeste 0 -- -- 73
2018-01-17 19:00:00 9.9 3 Nordeste 11 Nordeste 0 -- -- 69
2018-01-17 18:00:00 11.7 6 Norte 11 Nordeste 0 -- -- 62
2018-01-17 17:00:00 12 5 Norte 13 Nordeste 0 -- -- 69
2018-01-17 16:00:00 11.6 6 Norte 16 Nordeste 0 -- -- 69
2018-01-17 15:00:00 9.4 3 Noroeste 8 Noroeste 0 -- -- 83
2018-01-17 14:00:00 7.3 2 Este 6 Nordeste 0 -- -- 98
2018-01-17 13:00:00 5.3 0 Calma 4 Nordeste 0 -- -- 100
2018-01-17 12:00:00 3.9 0 Calma 6 Sur 0 -- -- 100
2018-01-17 11:00:00 3.2 3 Sudoeste 8 Oeste 0 -- -- 100
2018-01-17 10:00:00 2.5 2 Sudoeste 8 Sur 0 -- -- 100
2018-01-17 09:00:00 1.8 4 Sur 8 Sudoeste 0 -- -- 100
2018-01-17 08:00:00 1.2 3 Sur 7 Sur 0 -- -- 99
2018-01-17 07:00:00 0.4 2 Sur 10 Sur 0 -- -- 98
2018-01-17 06:00:00 1.3 3 Sur 8 Sudoeste 0 -- -- 97
2018-01-17 05:00:00 1.7 4 Sur 9 Sudoeste 0 -- -- 95
2018-01-17 04:00:00 2.5 0 Calma 4 Sudoeste 0 -- -- 94
2018-01-17 03:00:00 3.7 0 Calma 4 Oeste 0 -- -- 93
2018-01-17 02:00:00 3.6 0 Calma 2 Nordeste 0 -- -- 95
2018-01-17 01:00:00 3.4 0 Calma 3 Sur 0 -- -- 93
2018-01-17 00:00:00 4 0 Calma 3 Sudeste 0 -- -- 92
2018-01-16 23:00:00 4.7 2 Sur 5 Sur 0 -- -- 91
2018-01-16 22:00:00 5.5 0 Calma 5 Noroeste 0 -- -- 89
2018-01-16 21:00:00 6.2 0 Calma 9 Sudoeste 0 -- -- 86
2018-01-16 20:00:00 7.4 4 Sudoeste 13 Oeste 0 -- -- 83
2018-01-16 19:00:00 8.5 3 Sudoeste 10 Sudoeste 0 -- -- 79
2018-01-16 18:00:00 10.2 5 Sudoeste 20 Sudoeste 0 -- -- 74
2018-01-16 17:00:00 10.8 8 Sudoeste 20 Sudoeste 0 -- -- 71
2018-01-16 16:00:00 11.1 7 Sudoeste 21 Sur 0 -- -- 69
2018-01-16 15:00:00 10.7 5 Sudoeste 17 Oeste 0 -- -- 69
2018-01-16 14:00:00 9.7 6 Sudoeste 19 Sur 0 -- -- 71
2018-01-16 13:00:00 8.2 6 Sudoeste 17 Sudoeste 0 -- -- 76
2018-01-16 12:00:00 6.8 6 Sudoeste 14 Sur 0 -- -- 80
2018-01-16 11:00:00 4.2 7 Sur 13 Sudoeste 0 -- -- 87
2018-01-16 10:00:00 1.4 3 Sur 7 Sur 0 -- -- 96
2018-01-16 09:00:00 0.1 3 Sur 7 Sur 0 -- -- 96
2018-01-16 08:00:00 0.1 3 Sur 7 Sur 0 -- -- 96
2018-01-16 07:00:00 0.1 3 Sur 8 Sur 0 -- -- 96
2018-01-16 06:00:00 0.1 3 Sur 8 Sudoeste 0 -- -- 95
2018-01-16 05:00:00 0.3 3 Sur 8 Sur 0 -- -- 95
2018-01-16 04:00:00 0.5 3 Sur 6 Sudeste 0 -- -- 95
2018-01-16 03:00:00 0.6 3 Sur 7 Sur 0 -- -- 94
2018-01-16 02:00:00 1 3 Sur 8 Sur 0 -- -- 94
2018-01-16 01:00:00 1.4 2 Sur 5 Sur 0 -- -- 93
2018-01-16 00:00:00 1.8 0 Calma 8 Sur 0 -- -- 92
2018-01-15 23:00:00 2.3 0 Calma 4 Sur 0 -- -- 89
2018-01-15 22:00:00 3 0 Calma 6 Sudoeste 0 -- -- 86
2018-01-15 21:00:00 3.8 0 Calma 5 Sudoeste 0 -- -- 83
2018-01-15 20:00:00 5.1 3 Sudoeste 4 Sudoeste 0 -- -- 80
2018-01-15 19:00:00 6.3 0 Calma 10 Noroeste 0 -- -- 73
2018-01-15 18:00:00 7.5 5 Noroeste 17 Noroeste 0 -- -- 69
2018-01-15 17:00:00 8.6 7 Noroeste 15 Noroeste 0 -- -- 67
2018-01-15 16:00:00 8.7 6 Noroeste 13 Noroeste 0 -- -- 66
2018-01-15 15:00:00 7.8 5 Noroeste 13 Norte 0 -- -- 69
2018-01-15 14:00:00 6.8 3 Norte 13 Nordeste 0 -- -- 70
2018-01-15 13:00:00 5.9 4 Norte 12 Nordeste 0 -- -- 72
2018-01-15 12:00:00 4.7 4 Norte 12 Norte 0 -- -- 80
2018-01-15 11:00:00 2.3 4 Noroeste 9 Oeste 0 -- -- 86
2018-01-15 10:00:00 0.2 3 Noroeste 9 Noroeste 0 -- -- 95
2018-01-15 09:00:00 -1.8 0 Calma 6 Noroeste 0 -- -- 95
2018-01-15 08:00:00 -1.6 0 Calma 7 Noroeste 0 -- -- 95
2018-01-15 07:00:00 -1.4 2 Noroeste 8 Noroeste 0 -- -- 94
2018-01-15 06:00:00 -0.9 0 Calma 9 Noroeste 0 -- -- 94
2018-01-15 05:00:00 -0.6 0 Calma 6 Norte 0 -- -- 95
2018-01-15 04:00:00 -0.5 0 Calma 6 Norte 0 -- -- 94
2018-01-15 03:00:00 -0.2 7 Norte 15 Norte 0 -- -- 93
2018-01-15 02:00:00 0.4 6 Norte 14 Norte 0 -- -- 92
2018-01-15 01:00:00 1.1 5 Norte 14 Norte 0 -- -- 92
2018-01-15 00:00:00 1.5 4 Norte 13 Norte 0 -- -- 92
2018-01-14 23:00:00 1.8 4 Norte 9 Norte 0 -- -- 92
2018-01-14 22:00:00 2.1 3 Norte 12 Norte 0 -- -- 91
2018-01-14 21:00:00 3.1 5 Norte 13 Norte 0 -- -- 89
2018-01-14 20:00:00 3.5 0 Calma 3 Sudoeste 0 -- -- 91
2018-01-14 19:00:00 4.6 0 Calma 3 Norte 0 -- -- 87
2018-01-14 18:00:00 5.8 3 Norte 7 Norte 0 -- -- 83
2018-01-14 17:00:00 5.6 0 Calma 8 Sudoeste 0 -- -- 85
2018-01-14 16:00:00 5.9 2 Oeste 11 Norte 0 -- -- 84
2018-01-14 15:00:00 6.6 5 Norte 16 Nordeste 0 -- -- 75
2018-01-14 14:00:00 6.9 4 Norte 11 Oeste 0 -- -- 78
2018-01-14 13:00:00 6.7 0 Calma 6 Sudoeste 0 -- -- 79
2018-01-14 12:00:00 5.6 3 Noroeste 10 Noroeste 0 -- -- 85
2018-01-14 11:00:00 4.8 0 Calma 8 Noroeste 0.2 -- -- 98
2018-01-14 10:00:00 4 2 Oeste 9 Oeste 0 -- -- 99
2018-01-14 09:00:00 3.4 3 Sudoeste 8 Sudoeste 0 -- -- 98
2018-01-14 08:00:00 3.5 3 Sudoeste 12 Sudoeste 0 -- -- 97
2018-01-14 07:00:00 3.6 4 Sudoeste 15 Sudoeste 0 -- -- 97
2018-01-14 06:00:00 3.8 6 Sudoeste 16 Sudoeste 0 -- -- 97
2018-01-14 05:00:00 3.8 0 Calma 6 Oeste 0 -- -- 96
2018-01-14 04:00:00 3.9 0 Calma 6 Sudoeste 0 -- -- 96
2018-01-14 03:00:00 3.8 2 Sudoeste 10 Sudoeste 0 -- -- 95
2018-01-14 02:00:00 3.4 3 Oeste 8 Oeste 0 -- -- 95
2018-01-14 01:00:00 2.9 2 Sudoeste 6 Sudoeste 0 -- -- 95
2018-01-14 00:00:00 3 0 Calma 8 Noroeste 0 -- -- 93
2018-01-13 23:00:00 3.9 3 Noroeste 14 Noroeste 0 -- -- 91
2018-01-13 22:00:00 4.4 6 Noroeste 17 Noroeste 0 -- -- 94
2018-01-13 21:00:00 5.8 4 Noroeste 20 Oeste 0 -- -- 96
2018-01-13 20:00:00 5.7 6 Sudoeste 18 Oeste 0 -- -- 96
2018-01-13 19:00:00 5.6 5 Sudoeste 16 Sudoeste 0 -- -- 95
2018-01-13 18:00:00 5.8 3 Sudoeste 16 Sur 0 -- -- 88
2018-01-13 17:00:00 5.6 9 Sur 18 Sur 0 -- -- 87
2018-01-13 16:00:00 5.7 9 Sur 26 Sudoeste 0.8 -- -- 83
2018-01-13 15:00:00 7.6 13 Sudoeste 30 Sudoeste 0 -- -- 65
2018-01-13 14:00:00 7.7 11 Sur 23 Sur 0 -- -- 67
2018-01-13 13:00:00 5.7 5 Sur 12 Sur 0 -- -- 82
2018-01-13 12:00:00 4.9 4 Sur 8 Sudeste 0 -- -- 81
2018-01-13 11:00:00 3.4 3 Sudeste 8 Sudeste 0 -- -- 86
2018-01-13 10:00:00 2.5 3 Sudeste 8 Sur 0 -- -- 88
2018-01-13 09:00:00 1.8 0 Calma 11 Sudeste 0 -- -- 89
2018-01-13 08:00:00 2 3 Sudeste 13 Sudeste 0 -- -- 88
2018-01-13 07:00:00 2.5 4 Sudeste 16 Sudeste 0 -- -- 87
2018-01-13 06:00:00 2.4 2 Sudeste 8 Este 0 -- -- 87
2018-01-13 05:00:00 2.7 3 Este 12 Sudeste 0 -- -- 84
2018-01-13 04:00:00 2.9 0 Calma 6 Sudeste 0 -- -- 86
2018-01-13 03:00:00 3 2 Sudeste 9 Sudeste 0 -- -- 86
2018-01-13 02:00:00 3.1 0 Calma 6 Sudeste 0 -- -- 86
2018-01-13 01:00:00 3.5 0 Calma 3 Sur 0 -- -- 86
2018-01-13 00:00:00 3.6 0 Calma 4 Este 0 -- -- 86
2018-01-12 23:00:00 4.3 0 Calma 6 Sudeste 0 -- -- 84
2018-01-12 22:00:00 4.7 0 Calma 4 Este 0 -- -- 82
2018-01-12 21:00:00 5.3 0 Calma 4 Sur 0 -- -- 80
2018-01-12 20:00:00 5.8 0 Calma 3 Sur 0 -- -- 78
2018-01-12 19:00:00 6.6 0 Calma 6 Sudoeste 0 -- -- 75
2018-01-12 18:00:00 7.8 3 Sudoeste 9 Sudoeste 0 -- -- 68
2018-01-12 17:00:00 8.6 4 Sudoeste 12 Sudoeste 0 -- -- 63
2018-01-12 16:00:00 8.5 6 Sudoeste 13 Sur 0 -- -- 65
2018-01-12 15:00:00 7.6 6 Sudoeste 14 Sur 0 -- -- 68
2018-01-12 14:00:00 6.8 7 Sur 14 Sur 0 -- -- 73
2018-01-12 13:00:00 5.6 5 Sudoeste 11 Sudoeste 0 -- -- 74
2018-01-12 12:00:00 5.1 3 Sudoeste 6 Sur 0 -- -- 74
2018-01-12 11:00:00 3.1 3 Sur 5 Sur 0 -- -- 84
2018-01-12 10:00:00 0.3 3 Sur 6 Sur 0 -- -- 97
2018-01-12 09:00:00 -1.5 0 Calma 2 Sur 0 -- -- 96
2018-01-12 08:00:00 -1.3 0 Calma 3 Oeste 0 -- -- 95
2018-01-12 07:00:00 -1.1 0 Calma 4 Sur 0 -- -- 93
2018-01-12 06:00:00 -0.7 0 Calma 5 Sudeste 0 -- -- 93
2018-01-12 05:00:00 -0.5 0 Calma 3 Sur 0 -- -- 92
2018-01-12 04:00:00 -0.3 0 Calma 2 Sudoeste 0 -- -- 92
2018-01-12 03:00:00 0 0 Calma 5 Sudoeste 0 -- -- 90
2018-01-12 02:00:00 0.5 0 Calma 4 Oeste 0 -- -- 88
2018-01-12 01:00:00 1.3 0 Calma 3 Sudoeste 0 -- -- 85
2018-01-12 00:00:00 2.1 0 Calma 6 Oeste 0 -- -- 82
2018-01-11 23:00:00 2.7 3 Noroeste 8 Noroeste 0 -- -- 80
2018-01-11 22:00:00 3.1 2 Oeste 7 Oeste 0 -- -- 79
2018-01-11 21:00:00 3.9 0 Calma 10 Oeste 0 -- -- 74
2018-01-11 20:00:00 5.1 4 Noroeste 13 Noroeste 0 -- -- 68
2018-01-11 19:00:00 5.7 2 Oeste 11 Norte 0 -- -- 69
2018-01-11 18:00:00 6.7 5 Noroeste 21 Noroeste 0 -- -- 66
2018-01-11 17:00:00 7.9 9 Noroeste 28 Noroeste 0 -- -- 62
2018-01-11 16:00:00 9 11 Noroeste 33 Noroeste 0 -- -- 57
2018-01-11 15:00:00 8.3 14 Noroeste 31 Noroeste 0 -- -- 57
2018-01-11 14:00:00 9.1 14 Noroeste 35 Noroeste 0 -- -- 55
2018-01-11 13:00:00 7.7 10 Noroeste 26 Noroeste 0 -- -- 70
2018-01-11 12:00:00 7.8 10 Noroeste 31 Oeste 0 -- -- 77
2018-01-11 11:00:00 6 9 Oeste 22 Oeste 0 -- -- 84
2018-01-11 10:00:00 3.1 3 Sudoeste 13 Oeste 0 -- -- 97
2018-01-11 09:00:00 1.6 3 Sudoeste 13 Sudoeste 0 -- -- 97
2018-01-11 08:00:00 1.4 3 Sudoeste 11 Oeste 0 -- -- 97
2018-01-11 07:00:00 1.3 4 Sudoeste 13 Sur 0 -- -- 96
2018-01-11 06:00:00 1.2 3 Sudoeste 9 Sudoeste 0 -- -- 94
2018-01-11 05:00:00 1.6 4 Sudoeste 9 Sur 0 -- -- 92
2018-01-11 04:00:00 2.4 0 Calma 4 Oeste 0 -- -- 92
2018-01-11 03:00:00 2.9 0 Calma 4 Oeste 0 -- -- 90
2018-01-11 02:00:00 4.1 2 Oeste 12 Oeste 0 -- -- 86
2018-01-11 01:00:00 5.5 6 Noroeste 25 Noroeste 0 -- -- 78
2018-01-11 00:00:00 6.2 9 Noroeste 30 Oeste 0 -- -- 79
2018-01-10 23:00:00 6.3 5 Noroeste 19 Noroeste 0 -- -- 84
2018-01-10 22:00:00 6.9 5 Noroeste 21 Noroeste 0 -- -- 88
2018-01-10 21:00:00 7.8 8 Noroeste 24 Noroeste 0 -- -- 89
2018-01-10 20:00:00 8 8 Oeste 24 Oeste 1.6 -- -- 96
2018-01-10 19:00:00 8.1 5 Sudoeste 14 Sudoeste 0 -- -- 92
2018-01-10 18:00:00 8.6 7 Oeste 21 Oeste 0.2 -- -- 86
2018-01-10 17:00:00 9.6 10 Sudoeste 29 Sudoeste 0 -- -- 75
2018-01-10 16:00:00 9.9 7 Oeste 38 Oeste 0 -- -- 71
2018-01-10 15:00:00 10.3 13 Oeste 38 Oeste 0 -- -- 68
2018-01-10 14:00:00 10.4 8 Oeste 26 Oeste 0 -- -- 75
2018-01-10 13:00:00 8.9 8 Oeste 30 Oeste 0 -- -- 81
2018-01-10 12:00:00 7.7 6 Oeste 16 Noroeste 0 -- -- 97
2018-01-10 11:00:00 6.2 3 Sudoeste 11 Sudoeste 0 -- -- 99
2018-01-10 10:00:00 5.7 2 Oeste 5 Oeste 0 -- -- 100
2018-01-10 09:00:00 5.4 3 Noroeste 9 Noroeste 0 -- -- 100
2018-01-10 08:00:00 5.3 2 Oeste 6 Noroeste 0 -- -- 100
2018-01-10 07:00:00 5.4 0 Calma 4 Sur 0 -- -- 100
2018-01-10 06:00:00 5.3 2 Sur 3 Sur 0 -- -- 100
2018-01-10 05:00:00 5.4 0 Calma 4 Sudoeste 0.2 -- -- 99
2018-01-10 04:00:00 5.3 0 Calma 5 Sur 0 -- -- 99
2018-01-10 03:00:00 5.2 3 Sur 5 Sudeste 0.4 -- -- 99
2018-01-10 02:00:00 5 2 Sudeste 8 Sur 0 -- -- 99
2018-01-10 01:00:00 4.9 0 Calma 9 Sur 0 -- -- 98
2018-01-10 00:00:00 4.8 5 Sur 13 Sur 0.2 -- -- 98
2018-01-09 23:00:00 4.7 7 Sur 13 Sur 0 -- -- 97
2018-01-09 22:00:00 4.6 7 Sur 16 Sur 0 -- -- 96
2018-01-09 21:00:00 4.6 7 Sur 14 Sur 0 -- -- 94
2018-01-09 20:00:00 4.6 6 Sur 12 Sudeste 1 -- -- 93
2018-01-09 19:00:00 5 3 Sur 9 Sur 0 -- -- 89
2018-01-09 18:00:00 5.1 3 Sudoeste 13 Sur 0 -- -- 87
2018-01-09 17:00:00 5.3 6 Sudoeste 14 Sur 0 -- -- 85
2018-01-09 16:00:00 4.8 5 Sudoeste 14 Sudoeste 0 -- -- 88
2018-01-09 15:00:00 3.9 4 Sudoeste 11 Sudoeste 0 -- -- 86
2018-01-09 14:00:00 2.9 5 Sur 13 Sur 0 -- -- 88
2018-01-09 13:00:00 2.6 6 Sur 12 Sur 0 -- -- 91
2018-01-09 12:00:00 0.9 5 Sudoeste 12 Sur 0 -- -- 95
2018-01-09 11:00:00 0.2 5 Sur 9 Sur 0 -- -- 96
2018-01-09 10:00:00 -0.8 4 Sur 11 Sur 0 -- -- 97
2018-01-09 09:00:00 -1.2 3 Sur 6 Sur 0 -- -- 97
2018-01-09 08:00:00 -1.3 2 Sur 5 Sur 0 -- -- 97
2018-01-09 07:00:00 -1.3 3 Sur 5 Sur 0 -- -- 97
2018-01-09 06:00:00 -1.2 3 Sur 6 Sur 0 -- -- 97
2018-01-09 05:00:00 -1.1 0 Calma 6 Sur 0 -- -- 97
2018-01-09 04:00:00 -0.6 3 Sur 6 Sur 0 -- -- 96
2018-01-09 03:00:00 -0.4 2 Sur 6 Sudoeste 0 -- -- 95
2018-01-09 02:00:00 0.1 0 Calma 4 Sur 0 -- -- 94
2018-01-09 01:00:00 0.6 0 Calma 6 Noroeste 0 -- -- 93
2018-01-09 00:00:00 0.9 2 Nordeste 5 Norte 0 -- -- 93
2018-01-08 23:00:00 1.5 0 Calma 4 Nordeste 0 -- -- 92
2018-01-08 22:00:00 2.1 0 Calma 5 Noroeste 0 -- -- 90
2018-01-08 21:00:00 2.9 3 Noroeste 6 Noroeste 0 -- -- 90
2018-01-08 20:00:00 4.1 2 Noroeste 6 Noroeste 0 -- -- 84
2018-01-08 19:00:00 5.2 0 Calma 10 Norte 0 -- -- 76
2018-01-08 18:00:00 6.3 3 Noroeste 10 Norte 0 -- -- 65
2018-01-08 17:00:00 6.6 3 Noroeste 11 Nordeste 0 -- -- 64
2018-01-08 16:00:00 6.5 6 Norte 12 Nordeste 0 -- -- 69
2018-01-08 15:00:00 6.4 3 Norte 11 Nordeste 0 -- -- 71
2018-01-08 14:00:00 6.1 5 Norte 12 Norte 0 -- -- 78
2018-01-08 13:00:00 5.5 4 Nordeste 11 Norte 0 -- -- 82
2018-01-08 12:00:00 4.4 5 Norte 9 Norte 0 -- -- 84
2018-01-08 11:00:00 2.9 3 Norte 7 Nordeste 0 -- -- 90
2018-01-08 10:00:00 0.8 4 Norte 8 Norte 0 -- -- 95
2018-01-08 09:00:00 0 0 Calma 6 Noroeste 0 -- -- 96
2018-01-08 08:00:00 0.2 0 Calma 4 Noroeste 0 -- -- 96
2018-01-08 07:00:00 0.5 0 Calma 7 Norte 0 -- -- 95
2018-01-08 06:00:00 0.6 4 Nordeste 9 Norte 0 -- -- 96
2018-01-08 05:00:00 0.9 2 Norte 5 Nordeste 0 -- -- 96
2018-01-08 04:00:00 1 0 Calma 4 Oeste 0 -- -- 96
2018-01-08 03:00:00 0.9 0 Calma 5 Oeste 0 -- -- 96
2018-01-08 02:00:00 1.2 0 Calma 5 Oeste 0 -- -- 94
2018-01-08 01:00:00 1.2 0 Calma 6 Este 0 -- -- 94
2018-01-08 00:00:00 1.4 3 Este 5 Este 0 -- -- 92
2018-01-07 23:00:00 1.9 0 Calma 7 Este 0 -- -- 92
2018-01-07 22:00:00 1.9 2 Sudeste 6 Este 0 -- -- 94
2018-01-07 21:00:00 1.6 2 Sudeste 6 Este 0 -- -- 95
2018-01-07 20:00:00 1.3 0 Calma 5 Oeste 0 -- -- 95
2018-01-07 19:00:00 1.9 2 Sudoeste 18 Sur 0 -- -- 93
2018-01-07 18:00:00 3.8 7 Sur 18 Sudoeste 0 -- -- 81
2018-01-07 17:00:00 4.1 7 Sur 18 Sur 0 -- -- 84
2018-01-07 16:00:00 4.1 8 Sur 21 Sur 0 -- -- 83
2018-01-07 15:00:00 4.4 9 Sur 26 Sur 0 -- -- 82
2018-01-07 14:00:00 4.5 12 Sudoeste 27 Sur 0 -- -- 86
2018-01-07 13:00:00 3.6 12 Sur 27 Sur 0 -- -- 92
2018-01-07 12:00:00 2.7 12 Sur 24 Sudoeste 0.2 -- -- 97
2018-01-07 11:00:00 2.4 10 Sudoeste 23 Sudoeste 0 -- -- 98
2018-01-07 10:00:00 2 6 Sudoeste 18 Oeste 0.4 -- -- 98
2018-01-07 09:00:00 1.6 5 Sudoeste 19 Sudoeste 1.4 -- -- 98
2018-01-07 08:00:00 1.3 3 Sudoeste 14 Oeste 1.2 -- -- 96
2018-01-07 07:00:00 2.2 6 Oeste 14 Sudoeste 1.2 -- -- 95
2018-01-07 06:00:00 2.5 6 Oeste 13 Oeste 0.2 -- -- 94
2018-01-07 05:00:00 2.7 5 Noroeste 17 Noroeste 0 -- -- 93
2018-01-07 04:00:00 2.8 4 Oeste 16 Oeste 0.4 -- -- 92
2018-01-07 03:00:00 3.1 5 Oeste 17 Oeste 0.2 -- -- 88
2018-01-07 02:00:00 3 7 Oeste 16 Oeste 0 -- -- 87
2018-01-07 01:00:00 2.6 0 Calma 17 Oeste 0 -- -- 92
2018-01-07 00:00:00 2.8 10 Noroeste 26 Noroeste 0 -- -- 92
2018-01-06 23:00:00 2.8 6 Noroeste 21 Noroeste 0 -- -- 93
2018-01-06 22:00:00 3.1 7 Noroeste 23 Noroeste 0 -- -- 91
2018-01-06 21:00:00 3.1 9 Noroeste 26 Noroeste 0 -- -- 90
2018-01-06 20:00:00 3.4 7 Noroeste 23 Oeste 0 -- -- 88
2018-01-06 19:00:00 3.6 9 Oeste 27 Noroeste 0.2 -- -- 88
2018-01-06 18:00:00 3.5 6 Noroeste 21 Oeste 0.8 -- -- 95
2018-01-06 17:00:00 3.6 6 Noroeste 27 Oeste 1.4 -- -- 95
2018-01-06 16:00:00 3 6 Noroeste 20 Oeste 0.8 -- -- 96
2018-01-06 15:00:00 2.9 7 Noroeste 21 Noroeste 1.6 -- -- 96
2018-01-06 14:00:00 3.1 8 Noroeste 23 Noroeste 0.4 -- -- 96
2018-01-06 13:00:00 3.3 8 Noroeste 19 Noroeste 1 -- -- 96
2018-01-06 12:00:00 4.1 4 Noroeste 18 Noroeste 1.2 -- -- 96
2018-01-06 11:00:00 4.6 4 Noroeste 15 Noroeste 0.4 -- -- 97
2018-01-06 10:00:00 4.3 5 Noroeste 17 Noroeste 0 -- -- 96
2018-01-06 09:00:00 4.8 4 Noroeste 15 Oeste 1 -- -- 98
2018-01-06 08:00:00 5 5 Noroeste 11 Noroeste 2.2 -- -- 98
2018-01-06 07:00:00 5.2 3 Noroeste 9 Norte 1.2 -- -- 97
2018-01-06 06:00:00 5.1 4 Noroeste 13 Norte 2.2 -- -- 97
2018-01-06 05:00:00 5.8 6 Noroeste 17 Noroeste 0.8 -- -- 94
2018-01-06 04:00:00 7.7 6 Sur 17 Sudoeste 0.2 -- -- 93
2018-01-06 03:00:00 8.3 11 Sudoeste 24 Sudoeste 2 -- -- 91
2018-01-06 02:00:00 8.4 9 Sur 18 Sur 0 -- -- 88
2018-01-06 01:00:00 8.7 5 Sur 20 Sur 0 -- -- 90
2018-01-06 00:00:00 9.1 10 Sur 24 Sur 0.4 -- -- 87
2018-01-05 23:00:00 9.5 11 Sur 28 Sur 0 -- -- 84
2018-01-05 22:00:00 9.4 11 Sur 25 Sur 0 -- -- 87
2018-01-05 21:00:00 9.4 10 Sur 26 Sudoeste 0 -- -- 82
2018-01-05 20:00:00 9.6 14 Sur 28 Sur 0 -- -- 80
2018-01-05 19:00:00 9.9 14 Sudoeste 31 Sudoeste 0 -- -- 77
2018-01-05 18:00:00 10.9 11 Sudoeste 26 Sudoeste 0 -- -- 69
2018-01-05 17:00:00 11.7 10 Sudoeste 33 Sudoeste 0 -- -- 65
2018-01-05 16:00:00 11.6 9 Sudoeste 32 Oeste 0 -- -- 67
2018-01-05 15:00:00 11 12 Sudoeste 23 Sudoeste 0 -- -- 68
2018-01-05 14:00:00 10.9 9 Oeste 27 Oeste 0 -- -- 67
2018-01-05 13:00:00 10.4 9 Sudoeste 32 Sudoeste 0 -- -- 72
2018-01-05 12:00:00 10 9 Sudoeste 24 Sudoeste 0 -- -- 79
2018-01-05 11:00:00 9.7 9 Sudoeste 23 Sudoeste 0 -- -- 80
2018-01-05 10:00:00 9.3 7 Sudoeste 18 Sudoeste 0 -- -- 88
2018-01-05 09:00:00 9 4 Sudoeste 12 Sudoeste 0 -- -- 88
2018-01-05 08:00:00 9.1 4 Sudoeste 19 Sudoeste 0 -- -- 86
2018-01-05 07:00:00 9.2 5 Sudoeste 15 Sudoeste 0 -- -- 85
2018-01-05 06:00:00 9.4 4 Sudoeste 18 Oeste 0 -- -- 83
2018-01-05 05:00:00 9.4 7 Sudoeste 16 Sudoeste 0 -- -- 84
2018-01-05 04:00:00 9.4 5 Sudoeste 12 Sudoeste 0 -- -- 89
2018-01-05 03:00:00 9.4 3 Sudoeste 10 Oeste 0 -- -- 91
2018-01-05 02:00:00 9.7 4 Sudoeste 14 Oeste 0 -- -- 90
2018-01-05 01:00:00 9.7 5 Oeste 15 Oeste 0 -- -- 90
2018-01-05 00:00:00 9.9 4 Oeste 15 Sudoeste 0 -- -- 91
2018-01-04 23:00:00 10 5 Sudoeste 13 Sudoeste 0 -- -- 91
2018-01-04 22:00:00 9.7 4 Sudoeste 15 Sur 0 -- -- 92
2018-01-04 21:00:00 9.4 5 Sudoeste 17 Oeste 0 -- -- 92
2018-01-04 20:00:00 9.6 5 Sudoeste 13 Sur 0 -- -- 90
2018-01-04 19:00:00 10.7 6 Oeste 15 Oeste 0 -- -- 84
2018-01-04 18:00:00 12.1 5 Oeste 23 Oeste 0 -- -- 83
2018-01-04 17:00:00 12.8 8 Sudoeste 24 Oeste 0 -- -- 82
2018-01-04 16:00:00 13.4 6 Oeste 23 Oeste 0 -- -- 78
2018-01-04 15:00:00 13.1 6 Oeste 15 Oeste 0 -- -- 81
2018-01-04 14:00:00 12.6 5 Oeste 16 Oeste 0 -- -- 86
2018-01-04 13:00:00 11.3 4 Oeste 10 Oeste 0 -- -- 96
2018-01-04 12:00:00 10.7 3 Sudoeste 12 Oeste 0 -- -- 99
2018-01-04 11:00:00 10.2 4 Sudoeste 15 Sudoeste 0 -- -- 100
2018-01-04 10:00:00 9.5 5 Sudoeste 15 Sudoeste 0 -- -- 100
2018-01-04 09:00:00 8.5 3 Sur 5 Sudoeste 0 -- -- 100
2018-01-04 08:00:00 8 0 Calma 5 Sudoeste 0 -- -- 100
2018-01-04 07:00:00 7.7 0 Calma 4 Oeste 0 -- -- 100
2018-01-04 06:00:00 7.7 0 Calma 8 Oeste 0 -- -- 99
2018-01-04 05:00:00 8 2 Sudoeste 6 Sudoeste 0 -- -- 99
2018-01-04 04:00:00 7.8 3 Sudoeste 12 Sur 0 -- -- 99
2018-01-04 03:00:00 7.6 4 Sur 12 Oeste 0 -- -- 98
2018-01-04 02:00:00 7.5 6 Sudoeste 13 Sudoeste 0 -- -- 97
2018-01-04 01:00:00 8 4 Sur 10 Sudoeste 0 -- -- 96
2018-01-04 00:00:00 8.5 4 Sudoeste 10 Sudoeste 0 -- -- 95
2018-01-03 23:00:00 9.2 5 Sudoeste 9 Sur 0 -- -- 94
2018-01-03 22:00:00 9.4 4 Norte 9 Norte 0 -- -- 95
2018-01-03 21:00:00 8.6 0 Calma 15 Sudoeste 0 -- -- 95
2018-01-03 20:00:00 9.2 5 Sudoeste 15 Sudoeste 0 -- -- 93
2018-01-03 19:00:00 9.9 5 Sudoeste 16 Sudoeste 0 -- -- 90
2018-01-03 18:00:00 11.3 5 Sudoeste 16 Sur 0 -- -- 86
2018-01-03 17:00:00 12.7 9 Sudoeste 20 Sur 0 -- -- 81
2018-01-03 16:00:00 13.5 8 Sudoeste 16 Sudoeste 0 -- -- 80
2018-01-03 15:00:00 12.7 5 Oeste 12 Oeste 0 -- -- 82
2018-01-03 14:00:00 12.1 4 Sudoeste 16 Sudoeste 0 -- -- 84
2018-01-03 13:00:00 10.7 5 Sudoeste 22 Sudoeste 0 -- -- 91
2018-01-03 12:00:00 9.7 6 Sudoeste 18 Sudoeste 0 -- -- 95
2018-01-03 11:00:00 9 5 Sudoeste 15 Sur 0 -- -- 98
2018-01-03 10:00:00 8.2 3 Sudoeste 10 Sudoeste 0 -- -- 100
2018-01-03 09:00:00 7.5 4 Sudoeste 13 Sudoeste 0 -- -- 100
2018-01-03 08:00:00 7.2 4 Sudoeste 9 Sudoeste 0 -- -- 100
2018-01-03 07:00:00 6.6 4 Sudoeste 9 Sudoeste 0 -- -- 99
2018-01-03 06:00:00 6.6 0 Calma 5 Sudoeste 0 -- -- 99
2018-01-03 05:00:00 6.9 0 Calma 7 Sur 0 -- -- 99
2018-01-03 04:00:00 6.5 0 Calma 5 Oeste 0 -- -- 99
2018-01-03 03:00:00 6.2 0 Calma 8 Oeste 0 -- -- 99
2018-01-03 02:00:00 6.3 3 Oeste 9 Sudoeste 0 -- -- 98
2018-01-03 01:00:00 5.1 3 Sur 9 Sur 0 -- -- 97
2018-01-03 00:00:00 5.2 4 Sur 8 Sur 0 -- -- 96
2018-01-02 23:00:00 5.6 4 Sudoeste 10 Sudoeste 0 -- -- 95
2018-01-02 22:00:00 6 0 Calma 7 Oeste 0 -- -- 93
2018-01-02 21:00:00 6.4 4 Sudoeste 9 Sur 0 -- -- 91
2018-01-02 20:00:00 7.4 5 Sudoeste 10 Sudoeste 0 -- -- 87
2018-01-02 19:00:00 8.7 3 Sudoeste 12 Oeste 0 -- -- 81
2018-01-02 18:00:00 10.1 4 Sudoeste 18 Sudoeste 0 -- -- 76
2018-01-02 17:00:00 10.9 5 Sudoeste 19 Sudoeste 0 -- -- 74
2018-01-02 16:00:00 11.3 7 Sudoeste 21 Sudoeste 0 -- -- 72
2018-01-02 15:00:00 10.9 11 Sudoeste 23 Sudoeste 0 -- -- 70
2018-01-02 14:00:00 10.3 12 Sudoeste 33 Oeste 0 -- -- 74
2018-01-02 13:00:00 9.7 12 Sudoeste 30 Oeste 0 -- -- 78
2018-01-02 12:00:00 8.4 12 Sudoeste 29 Sudoeste 0.2 -- -- 85
2018-01-02 11:00:00 6.1 6 Sudoeste 20 Sur 0 -- -- 100
2018-01-02 10:00:00 4.6 6 Sudoeste 15 Sudoeste 0 -- -- 100
2018-01-02 09:00:00 3.2 5 Sudoeste 14 Oeste 0 -- -- 100
2018-01-02 08:00:00 2.5 4 Sudoeste 11 Sudoeste 0 -- -- 99
2018-01-02 07:00:00 2.4 3 Sur 8 Sudoeste 0 -- -- 99
2018-01-02 06:00:00 3.1 2 Sudeste 5 Sudoeste 0 -- -- 98
2018-01-02 05:00:00 3.7 0 Calma 9 Oeste 0 -- -- 97
2018-01-02 04:00:00 3.6 3 Sudoeste 9 Oeste 0 -- -- 97
2018-01-02 03:00:00 3.6 0 Calma 2 Sudoeste 0 -- -- 94
2018-01-02 02:00:00 4.3 0 Calma 8 Oeste 0 -- -- 94
2018-01-02 01:00:00 4.7 4 Oeste 12 Oeste 0 -- -- 93
2018-01-02 00:00:00 5 4 Sudoeste 12 Oeste 0 -- -- 91
2018-01-01 23:00:00 5.2 3 Sudoeste 10 Sur 0 -- -- 90
2018-01-01 22:00:00 5.4 3 Sudoeste 10 Sudoeste 0 -- -- 87
2018-01-01 21:00:00 6.3 4 Sudoeste 12 Oeste 0 -- -- 84
2018-01-01 20:00:00 7.3 5 Sudoeste 20 Oeste 0 -- -- 77
2018-01-01 19:00:00 8.1 5 Oeste 16 Oeste 0 -- -- 70
2018-01-01 18:00:00 9.7 5 Oeste 19 Oeste 0 -- -- 60
2018-01-01 17:00:00 11.1 10 Oeste 24 Oeste 0 -- -- 51
2018-01-01 16:00:00 11.4 10 Oeste 27 Noroeste 0 -- -- 49
2018-01-01 15:00:00 10.8 8 Oeste 21 Sudoeste 0 -- -- 53
2018-01-01 14:00:00 9.1 8 Sudoeste 19 Sudoeste 0 -- -- 71
2018-01-01 13:00:00 7 5 Sudoeste 15 Oeste 0 -- -- 86
2018-01-01 12:00:00 5 6 Sudoeste 14 Sur 0 -- -- 100
2018-01-01 11:00:00 2.6 5 Sur 9 Sudoeste 0 -- -- 100
2018-01-01 10:00:00 1.4 4 Sur 10 Sur 0 -- -- 100
2018-01-01 09:00:00 1.6 2 Sur 6 Oeste 0 -- -- 99
2018-01-01 08:00:00 1 3 Sudoeste 8 Sudoeste 0 -- -- 99
2018-01-01 07:00:00 1.1 0 Calma 6 Sur 0 -- -- 98
2018-01-01 06:00:00 1.9 3 Sur 8 Sur 0 -- -- 96
2018-01-01 05:00:00 2.2 2 Sur 4 Sur 0 -- -- 94
2018-01-01 04:00:00 2.9 2 Sur 9 Sur 0 -- -- 91
2018-01-01 03:00:00 4.1 0 Calma 9 Noroeste 0 -- -- 89
2018-01-01 02:00:00 4.9 4 Noroeste 10 Norte 0 -- -- 90
2018-01-01 01:00:00 5.3 0 Calma 12 Oeste 0 -- -- 90
2018-01-01 00:00:00 6.4 2 Noroeste 17 Noroeste 0 -- -- 90
2017-12-31 23:00:00 7.5 7 Noroeste 25 Noroeste 0 -- -- 88
2017-12-31 22:00:00 8.2 6 Noroeste 31 Oeste 0 -- -- 84
2017-12-31 21:00:00 9.3 12 Noroeste 35 Noroeste 0 -- -- 86
2017-12-31 20:00:00 9.6 6 Oeste 22 Oeste 0 -- -- 92
2017-12-31 19:00:00 10.2 9 Sudoeste 24 Oeste 0 -- -- 85
2017-12-31 18:00:00 10.5 9 Sudoeste 29 Sudoeste 0 -- -- 81
2017-12-31 17:00:00 10.9 11 Sudoeste 29 Oeste 0 -- -- 78
2017-12-31 16:00:00 10.8 10 Sudoeste 27 Oeste 0 -- -- 81
2017-12-31 15:00:00 10.6 8 Sudoeste 30 Sudoeste 0 -- -- 82
2017-12-31 14:00:00 9 9 Sudoeste 22 Oeste 0 -- -- 95
2017-12-31 13:00:00 8.1 6 Sudoeste 17 Sudoeste 0 -- -- 100
2017-12-31 12:00:00 5.8 5 Sur 12 Sudoeste 0 -- -- 100
2017-12-31 11:00:00 4.5 7 Sudoeste 13 Sudoeste 0 -- -- 100
2017-12-31 10:00:00 3.8 4 Sudoeste 12 Sur 0 -- -- 99
2017-12-31 09:00:00 3.8 5 Sur 12 Sur 0 -- -- 99
2017-12-31 08:00:00 3.8 2 Sudeste 6 Sur 0.2 -- -- 100
2017-12-31 07:00:00 4 4 Sudoeste 7 Sudoeste 0 -- -- 99
2017-12-31 06:00:00 4.2 3 Sur 6 Sur 0 -- -- 99
2017-12-31 05:00:00 4.8 2 Sudoeste 7 Sur 0 -- -- 98
2017-12-31 04:00:00 5.6 2 Sudeste 6 Sur 0 -- -- 98
2017-12-31 03:00:00 5.9 0 Calma 4 Sur 0 -- -- 97
2017-12-31 02:00:00 5.7 0 Calma 3 Sur 0 -- -- 96
2017-12-31 01:00:00 6.1 0 Calma 4 Sudeste 0 -- -- 95